Time;durP1;ratioP1;P1;durP2;ratioP2;P2;SDS_P1;SDS_P2;PMS_P1;PMS_P2;Temp;Humidity;BMP_temperature;BMP_pressure;BME280_temperature;BME280_humidity;BME280_pressure;Samples;Min_cycle;Max_cycle;Signal;HPM_P1;HPM_P2
2023/09/22 00:02:20;;;;;;;11.93;3.17;;;15.00;99.90;;;;;;7286631;19;20613;-81
2023/09/22 00:04:46;;;;;;;13.37;3.40;;;15.10;99.90;;;;;;7286487;19;20213;-78
2023/09/22 00:07:11;;;;;;;9.43;3.10;;;15.20;99.90;;;;;;7300057;19;20192;-78
2023/09/22 00:09:38;;;;;;;10.03;3.20;;;15.30;99.90;;;;;;7306062;19;20294;-81
2023/09/22 00:12:04;;;;;;;10.17;3.37;;;15.30;99.90;;;;;;7288555;19;20218;-81
2023/09/22 00:14:31;;;;;;;9.57;3.27;;;15.30;99.90;;;;;;7287672;19;20203;-81
2023/09/22 00:16:58;;;;;;;8.37;3.30;;;15.20;99.90;;;;;;7289789;19;20191;-81
2023/09/22 00:19:24;;;;;;;9.67;3.20;;;15.30;99.90;;;;;;7288377;19;20530;-81
2023/09/22 00:21:50;;;;;;;9.93;3.27;;;15.30;99.90;;;;;;7284947;19;20607;-78
2023/09/22 00:24:19;;;;;;;9.40;2.97;;;15.30;99.90;;;;;;7287348;19;20208;-78
2023/09/22 00:26:45;;;;;;;10.07;3.60;;;15.30;99.90;;;;;;7287174;19;20185;-81
2023/09/22 00:29:11;;;;;;;8.93;3.50;;;15.30;99.90;;;;;;7302389;19;20190;-78
2023/09/22 00:31:37;;;;;;;9.20;3.30;;;15.30;99.90;;;;;;7299814;19;20549;-78
2023/09/22 00:34:02;;;;;;;11.77;3.87;;;15.20;99.90;;;;;;7286805;19;20201;-78
2023/09/22 00:36:28;;;;;;;15.80;4.03;;;15.10;99.90;;;;;;7284159;19;20206;-78
2023/09/22 00:38:54;;;;;;;8.70;3.80;;;15.10;99.90;;;;;;7285851;19;20206;-78
2023/09/22 00:41:23;;;;;;;11.73;4.00;;;15.20;99.90;;;;;;7285745;19;20185;-78
2023/09/22 00:43:49;;;;;;;16.20;4.30;;;15.20;99.90;;;;;;7285953;19;20669;-78
2023/09/22 00:46:23;;;;;;;11.67;4.57;;;15.20;99.90;;;;;;7287089;19;20189;-78
2023/09/22 00:48:51;;;;;;;14.40;4.73;;;15.20;99.90;;;;;;7283294;19;20199;-78
2023/09/22 00:51:19;;;;;;;11.70;5.07;;;15.10;99.90;;;;;;7288354;19;20200;-81
2023/09/22 00:53:47;;;;;;;13.47;5.17;;;15.10;99.90;;;;;;7285921;19;20190;-78
2023/09/22 00:56:15;;;;;;;15.80;5.60;;;15.20;99.90;;;;;;7288413;19;20191;-81
2023/09/22 00:58:41;;;;;;;14.30;5.73;;;15.30;99.90;;;;;;7309227;19;20191;-81
2023/09/22 01:01:08;;;;;;;12.07;4.77;;;15.30;99.90;;;;;;7288109;19;20218;-78
2023/09/22 01:03:34;;;;;;;16.20;5.03;;;15.20;99.90;;;;;;7284724;19;20222;-78
2023/09/22 01:06:00;;;;;;;9.13;4.67;;;15.10;99.90;;;;;;7286700;19;20196;-77
2023/09/22 01:08:26;;;;;;;11.70;4.80;;;15.10;99.90;;;;;;7284424;19;20205;-77
2023/09/22 01:10:52;;;;;;;9.97;4.50;;;15.20;99.90;;;;;;7286423;19;20186;-78
2023/09/22 01:13:18;;;;;;;11.67;4.97;;;15.20;99.90;;;;;;7288227;19;20185;-82
2023/09/22 01:15:44;;;;;;;15.57;5.60;;;15.20;99.90;;;;;;7285782;19;20195;-81
2023/09/22 01:18:13;;;;;;;14.17;5.40;;;15.20;99.90;;;;;;7307276;19;20191;-78
2023/09/22 01:20:43;;;;;;;11.53;4.80;;;15.10;99.90;;;;;;7281311;19;20215;-78
2023/09/22 01:23:13;;;;;;;11.80;4.83;;;15.10;99.90;;;;;;7286918;19;20256;-77
2023/09/22 01:25:40;;;;;;;13.20;4.77;;;15.10;99.90;;;;;;7284374;19;20190;-78
2023/09/22 01:28:10;;;;;;;14.70;4.40;;;15.10;99.90;;;;;;7283816;19;20579;-77
2023/09/22 01:30:39;;;;;;;11.30;4.07;;;15.10;99.90;;;;;;7286697;19;20205;-81
2023/09/22 01:33:06;;;;;;;11.97;3.97;;;15.10;99.90;;;;;;7285634;19;20190;-81
2023/09/22 01:35:32;;;;;;;11.27;3.67;;;15.20;99.90;;;;;;7284702;19;20218;-78
2023/09/22 01:38:23;;;;;;;7.27;3.23;;;15.10;99.90;;;;;;7283775;19;20246;-77
2023/09/22 01:40:49;;;;;;;10.93;3.53;;;15.10;99.90;;;;;;7181924;19;2005901;-77
2023/09/22 01:43:16;;;;;;;11.77;3.23;;;15.20;99.90;;;;;;7283695;19;20193;-81
2023/09/22 01:45:43;;;;;;;8.60;2.97;;;15.30;99.90;;;;;;7292747;19;20579;-81
2023/09/22 01:48:09;;;;;;;10.27;3.27;;;15.40;99.90;;;;;;7307624;19;20192;-77
2023/09/22 01:50:40;;;;;;;8.07;2.83;;;15.40;99.90;;;;;;7283396;19;20185;-77
2023/09/22 01:53:08;;;;;;;7.33;2.60;;;15.50;99.90;;;;;;7284156;19;20192;-77
2023/09/22 01:55:35;;;;;;;9.27;2.27;;;15.50;99.90;;;;;;7283500;19;20201;-80
2023/09/22 01:58:01;;;;;;;6.83;2.13;;;15.50;99.90;;;;;;7284503;19;20175;-76
2023/09/22 02:00:27;;;;;;;6.90;1.90;;;15.50;99.90;;;;;;7285693;19;20196;-80
2023/09/22 02:02:53;;;;;;;8.93;2.00;;;15.50;99.90;;;;;;7283883;19;20197;-79
2023/09/22 02:05:19;;;;;;;5.73;2.00;;;15.60;99.90;;;;;;7283546;19;20244;-81
2023/09/22 02:07:45;;;;;;;10.60;1.80;;;15.60;99.90;;;;;;7284961;19;20208;-81
2023/09/22 02:10:15;;;;;;;6.37;1.97;;;15.60;99.90;;;;;;7298660;19;20185;-82
2023/09/22 02:12:43;;;;;;;8.77;1.87;;;15.70;99.90;;;;;;7306328;19;20203;-77
2023/09/22 02:15:12;;;;;;;5.77;1.80;;;15.70;99.90;;;;;;7307063;19;20187;-81
2023/09/22 02:17:44;;;;;;;7.00;1.87;;;15.60;99.90;;;;;;7285154;19;20201;-77
2023/09/22 02:20:18;;;;;;;6.37;1.80;;;15.50;99.90;;;;;;7284982;19;20193;-77
2023/09/22 02:22:47;;;;;;;9.43;1.70;;;15.40;99.90;;;;;;7260935;19;20610;-77
2023/09/22 02:25:13;;;;;;;8.83;1.90;;;15.20;99.90;;;;;;7284153;19;20190;-77
2023/09/22 02:27:40;;;;;;;8.17;2.10;;;15.20;99.90;;;;;;7304883;19;20181;-77
2023/09/22 02:30:08;;;;;;;8.27;1.97;;;15.10;99.90;;;;;;7286543;19;20193;-81
2023/09/22 02:32:39;;;;;;;10.03;2.20;;;15.20;99.90;;;;;;7285072;19;20198;-77
2023/09/22 02:35:05;;;;;;;9.70;1.90;;;15.30;99.90;;;;;;7281698;19;20213;-81
2023/09/22 02:37:31;;;;;;;7.10;2.03;;;15.40;99.90;;;;;;7285375;19;20235;-81
2023/09/22 02:39:58;;;;;;;5.77;1.50;;;15.40;99.90;;;;;;7284647;19;20189;-81
2023/09/22 02:42:23;;;;;;;7.60;2.03;;;15.50;99.90;;;;;;7282849;19;20191;-78
2023/09/22 02:44:50;;;;;;;7.13;1.90;;;15.60;99.90;;;;;;7288172;19;20186;-77
2023/09/22 02:47:15;;;;;;;10.40;1.93;;;15.70;99.90;;;;;;7289328;19;20286;-77
2023/09/22 02:49:43;;;;;;;7.77;1.90;;;15.70;99.90;;;;;;7308627;19;20194;-81
2023/09/22 02:52:09;;;;;;;7.60;1.77;;;15.70;99.90;;;;;;7313187;19;20286;-81
2023/09/22 02:54:36;;;;;;;7.83;2.20;;;15.70;99.90;;;;;;7289841;19;20586;-80
2023/09/22 02:57:03;;;;;;;6.50;1.93;;;15.50;99.90;;;;;;7289002;19;20227;-80
2023/09/22 02:59:31;;;;;;;8.47;2.00;;;15.30;99.90;;;;;;7290919;19;20201;-79
2023/09/22 03:01:57;;;;;;;6.73;2.23;;;15.30;99.90;;;;;;7287920;19;20270;-78
2023/09/22 03:04:23;;;;;;;8.90;2.37;;;15.30;99.90;;;;;;7291644;19;20221;-78
2023/09/22 03:06:49;;;;;;;10.63;2.67;;;15.20;99.90;;;;;;7288858;19;20264;-78
2023/09/22 03:09:16;;;;;;;6.77;2.20;;;15.20;99.90;;;;;;7287895;19;20211;-78
2023/09/22 03:11:42;;;;;;;9.77;2.53;;;15.10;99.90;;;;;;7300575;19;20193;-78
2023/09/22 03:14:08;;;;;;;11.00;2.53;;;15.10;99.90;;;;;;7305658;19;20702;-78
2023/09/22 03:16:34;;;;;;;11.83;2.83;;;15.00;99.90;;;;;;7289453;19;20204;-78
2023/09/22 03:18:59;;;;;;;10.23;2.70;;;15.00;99.90;;;;;;7289569;19;20260;-78
2023/09/22 03:21:26;;;;;;;11.20;2.90;;;14.90;99.90;;;;;;7287566;19;20203;-77
2023/09/22 03:23:53;;;;;;;14.63;3.20;;;14.90;99.90;;;;;;7289204;19;20192;-78
2023/09/22 03:26:20;;;;;;;14.67;3.27;;;14.90;99.90;;;;;;7287723;19;20187;-78
2023/09/22 03:28:47;;;;;;;13.20;3.20;;;15.00;99.90;;;;;;7284461;19;20529;-81
2023/09/22 03:31:13;;;;;;;9.37;2.83;;;14.90;99.90;;;;;;7295985;19;20226;-77
2023/09/22 03:33:40;;;;;;;9.37;2.70;;;15.00;99.90;;;;;;7312131;19;20214;-78
2023/09/22 03:36:12;;;;;;;10.80;2.80;;;15.10;99.90;;;;;;7289135;19;20195;-82
2023/09/22 03:38:39;;;;;;;7.80;2.40;;;15.00;99.90;;;;;;7290935;19;20709;-81
2023/09/22 03:41:05;;;;;;;8.03;2.50;;;15.10;99.90;;;;;;7287183;19;20263;-81
2023/09/22 03:43:33;;;;;;;10.40;2.80;;;15.10;99.90;;;;;;7288948;19;20259;-78
2023/09/22 03:46:00;;;;;;;10.33;2.73;;;15.10;99.90;;;;;;7289603;19;20191;-78
2023/09/22 03:48:26;;;;;;;7.23;2.27;;;15.20;99.90;;;;;;7287091;19;20538;-77
2023/09/22 03:50:53;;;;;;;8.23;2.93;;;15.20;99.90;;;;;;7286215;19;20238;-78
2023/09/22 03:53:19;;;;;;;9.23;2.87;;;15.30;99.90;;;;;;7288580;19;20203;-81
2023/09/22 03:55:45;;;;;;;11.87;2.80;;;15.30;99.90;;;;;;7286197;19;20186;-81
2023/09/22 03:58:11;;;;;;;6.07;2.20;;;15.20;99.90;;;;;;7309870;19;20190;-81
2023/09/22 04:00:37;;;;;;;9.30;2.63;;;15.20;99.90;;;;;;7287506;19;20190;-81
2023/09/22 04:03:09;;;;;;;11.00;2.70;;;15.20;99.90;;;;;;7287365;19;21614;-81
2023/09/22 04:05:38;;;;;;;9.77;2.47;;;15.10;99.90;;;;;;7285922;19;20694;-81
2023/09/22 04:08:05;;;;;;;8.80;2.30;;;15.10;99.90;;;;;;7288029;19;20195;-80
2023/09/22 04:10:32;;;;;;;10.23;2.57;;;15.10;99.90;;;;;;7288585;19;20202;-77
2023/09/22 04:12:57;;;;;;;10.40;2.70;;;15.10;99.90;;;;;;7287303;19;20200;-78
2023/09/22 04:15:23;;;;;;;7.87;2.37;;;15.00;99.90;;;;;;7284843;19;20281;-78
2023/09/22 04:17:50;;;;;;;7.27;2.17;;;14.90;99.90;;;;;;7286707;19;20185;-78
2023/09/22 04:20:26;;;;;;;6.27;1.80;;;14.80;99.90;;;;;;7286952;19;20186;-78
2023/09/22 04:22:53;;;;;;;8.17;2.00;;;14.70;99.90;;;;;;7287030;19;20206;-81
2023/09/22 04:25:19;;;;;;;5.37;1.90;;;14.70;99.90;;;;;;7287675;19;20320;-81
2023/09/22 04:27:53;;;;;;;9.20;1.97;;;14.60;99.90;;;;;;7288617;19;20677;-78
2023/09/22 04:30:22;;;;;;;4.60;1.50;;;14.50;99.90;;;;;;7287393;19;20177;-78
2023/09/22 04:32:47;;;;;;;4.97;1.40;;;14.50;99.90;;;;;;7287343;19;20189;-81
2023/09/22 04:35:14;;;;;;;5.10;1.47;;;14.40;99.90;;;;;;7289075;19;20662;-81
2023/09/22 04:37:40;;;;;;;9.30;2.17;;;14.50;99.90;;;;;;7309318;19;20188;-81
2023/09/22 04:40:23;;;;;;;5.17;1.40;;;14.50;99.90;;;;;;7287987;19;20177;-80
2023/09/22 04:42:53;;;;;;;7.10;1.67;;;14.50;99.90;;;;;;7183926;19;2004635;-80
2023/09/22 04:45:19;;;;;;;10.03;1.60;;;14.40;99.90;;;;;;7287185;19;20213;-80
2023/09/22 04:47:47;;;;;;;7.17;1.60;;;14.30;99.90;;;;;;7287559;19;20191;-80
2023/09/22 04:50:15;;;;;;;6.77;1.20;;;14.30;99.90;;;;;;7295443;19;20181;-80
2023/09/22 04:52:42;;;;;;;6.33;1.50;;;14.20;99.90;;;;;;7309447;19;20177;-82
2023/09/22 04:55:08;;;;;;;4.00;1.30;;;14.10;99.90;;;;;;7286938;19;20193;-82
2023/09/22 04:57:34;;;;;;;8.07;1.60;;;14.10;99.90;;;;;;7285322;19;20193;-81
2023/09/22 04:59:59;;;;;;;4.63;1.30;;;14.10;99.90;;;;;;7287251;19;20193;-80
2023/09/22 05:02:26;;;;;;;5.60;1.40;;;14.10;99.90;;;;;;7286318;19;20264;-82
2023/09/22 05:04:52;;;;;;;7.03;1.23;;;14.10;99.90;;;;;;7283629;19;20177;-80
2023/09/22 05:07:17;;;;;;;3.90;1.13;;;14.10;99.90;;;;;;7285480;19;20609;-80
2023/09/22 05:09:44;;;;;;;5.97;1.50;;;14.10;99.90;;;;;;7290192;19;20202;-80
2023/09/22 05:12:10;;;;;;;6.00;1.43;;;14.10;99.90;;;;;;7308564;19;20228;-80
2023/09/22 05:14:35;;;;;;;6.13;1.30;;;14.20;99.90;;;;;;7282655;19;20185;-80
2023/09/22 05:17:02;;;;;;;4.73;1.37;;;14.10;99.90;;;;;;7283986;19;23079;-81
2023/09/22 05:19:29;;;;;;;4.40;1.03;;;14.10;99.90;;;;;;7285175;19;20188;-82
2023/09/22 05:21:55;;;;;;;7.33;1.70;;;14.10;99.90;;;;;;7283049;19;20221;-78
2023/09/22 05:24:20;;;;;;;5.43;1.17;;;14.10;99.90;;;;;;7283241;19;20197;-78
2023/09/22 05:26:46;;;;;;;5.60;1.50;;;14.10;99.90;;;;;;7283302;19;20266;-78
2023/09/22 05:29:12;;;;;;;4.73;1.60;;;14.10;99.90;;;;;;7301991;19;20611;-78
2023/09/22 05:31:38;;;;;;;4.70;1.17;;;14.10;99.90;;;;;;7295135;19;20196;-79
2023/09/22 05:34:04;;;;;;;6.83;2.03;;;14.00;99.90;;;;;;7284081;19;20199;-81
2023/09/22 05:36:29;;;;;;;5.97;1.70;;;14.00;99.90;;;;;;7286465;19;20191;-81
2023/09/22 05:38:56;;;;;;;5.83;1.83;;;14.00;99.90;;;;;;7285447;19;20666;-81
2023/09/22 05:41:22;;;;;;;9.53;1.90;;;14.10;99.90;;;;;;7282713;19;20260;-79
2023/09/22 05:43:49;;;;;;;6.57;2.40;;;14.00;99.90;;;;;;7283210;19;20260;-84
2023/09/22 05:46:15;;;;;;;9.53;1.93;;;14.10;99.90;;;;;;7285577;19;20194;-86
2023/09/22 05:48:41;;;;;;;5.97;1.80;;;14.10;99.90;;;;;;7308037;19;20192;-86
2023/09/22 05:51:07;;;;;;;6.57;2.03;;;14.10;99.90;;;;;;7287441;19;20196;-86
2023/09/22 05:53:34;;;;;;;7.13;2.00;;;14.10;99.90;;;;;;7285871;19;20667;-86
2023/09/22 05:56:10;;;;;;;6.57;1.90;;;14.10;99.90;;;;;;7285058;19;20192;-86
2023/09/22 05:58:37;;;;;;;7.57;2.20;;;14.10;99.90;;;;;;7284626;19;20524;-86
2023/09/22 06:01:07;;;;;;;8.33;2.27;;;14.10;99.90;;;;;;7283858;19;20234;-86
2023/09/22 06:03:37;;;;;;;5.77;1.57;;;14.20;99.90;;;;;;7285753;19;20183;-86
2023/09/22 06:06:11;;;;;;;6.97;1.40;;;14.20;99.90;;;;;;7285186;19;20181;-86
2023/09/22 06:08:45;;;;;;;7.07;1.60;;;14.10;99.90;;;;;;7285232;19;20190;-87
2023/09/22 06:11:11;;;;;;;3.73;1.27;;;14.20;99.90;;;;;;7286488;19;20216;-86
2023/09/22 06:13:38;;;;;;;3.40;1.20;;;14.20;99.90;;;;;;7286214;19;20696;-86
2023/09/22 06:16:04;;;;;;;4.60;1.10;;;14.20;99.90;;;;;;7284931;19;20195;-86
2023/09/22 06:18:31;;;;;;;5.83;1.30;;;14.20;99.90;;;;;;7291363;19;20198;-86
2023/09/22 06:21:06;;;;;;;4.63;1.20;;;14.30;99.90;;;;;;7288459;19;20184;-87
2023/09/22 06:23:34;;;;;;;6.60;1.13;;;14.30;99.90;;;;;;7292931;19;20184;-86
2023/09/22 06:26:09;;;;;;;2.87;1.03;;;14.30;99.90;;;;;;7291644;19;20196;-86
2023/09/22 06:28:35;;;;;;;5.10;1.10;;;14.30;99.90;;;;;;7290015;19;20198;-86
2023/09/22 06:31:05;;;;;;;3.03;1.10;;;14.70;99.90;;;;;;7290981;19;20612;-86
2023/09/22 06:33:32;;;;;;;3.83;1.00;;;15.40;99.90;;;;;;7290936;19;21284;-86
2023/09/22 06:36:03;;;;;;;4.27;0.90;;;15.90;99.90;;;;;;7292045;19;20185;-86
2023/09/22 06:38:33;;;;;;;8.07;1.17;;;16.80;99.90;;;;;;7292785;19;20216;-86
2023/09/22 06:41:03;;;;;;;4.57;1.07;;;17.70;99.90;;;;;;7292067;19;20196;-86
2023/09/22 06:43:29;;;;;;;5.73;1.30;;;18.00;99.90;;;;;;7292252;19;20263;-86
2023/09/22 06:46:02;;;;;;;3.80;1.10;;;18.20;99.90;;;;;;7292922;19;20184;-86
2023/09/22 06:48:30;;;;;;;5.40;1.30;;;18.00;99.90;;;;;;7295549;19;20188;-86
2023/09/22 06:51:00;;;;;;;4.77;1.20;;;17.90;99.90;;;;;;7296884;19;20619;-86
2023/09/22 06:53:28;;;;;;;3.67;1.40;;;17.80;99.90;;;;;;7298642;19;20199;-86
2023/09/22 06:56:08;;;;;;;6.73;1.60;;;17.70;99.90;;;;;;7295969;19;20195;-87
2023/09/22 06:58:36;;;;;;;4.70;1.30;;;18.60;99.90;;;;;;7296508;19;20180;-86
2023/09/22 07:01:12;;;;;;;5.00;1.17;;;19.80;99.90;;;;;;7297642;19;20192;-86
2023/09/22 07:03:39;;;;;;;6.20;1.27;;;20.10;99.90;;;;;;7296477;19;20190;-86
2023/09/22 07:06:07;;;;;;;6.07;0.93;;;20.90;99.90;;;;;;7295917;19;20191;-86
2023/09/22 07:08:34;;;;;;;4.50;0.97;;;21.10;99.90;;;;;;7291783;19;20307;-86
2023/09/22 07:11:04;;;;;;;3.93;1.00;;;21.60;99.90;;;;;;7293136;19;20183;-86
2023/09/22 07:13:29;;;;;;;5.70;1.20;;;21.80;99.90;;;;;;7292359;19;20259;-86
2023/09/22 07:15:59;;;;;;;3.30;1.10;;;21.60;99.90;;;;;;7299246;19;20186;-86
2023/09/22 07:18:28;;;;;;;3.93;1.10;;;21.50;99.90;;;;;;7311981;19;20208;-85
2023/09/22 07:20:54;;;;;;;4.90;1.00;;;21.40;99.90;;;;;;7307585;19;20190;-85
2023/09/22 07:23:20;;;;;;;2.70;0.90;;;20.80;99.90;;;;;;7307850;19;20193;-85
2023/09/22 07:26:00;;;;;;;2.70;0.90;;;19.90;99.90;;;;;;7310260;19;20190;-85
2023/09/22 07:28:26;;;;;;;4.73;1.10;;;19.80;99.90;;;;;;7310300;19;20214;-86
2023/09/22 07:30:55;;;;;;;5.73;1.00;;;20.30;99.90;;;;;;7295538;19;20250;-85
2023/09/22 07:33:24;;;;;;;5.03;0.93;;;21.00;99.90;;;;;;7290632;19;20664;-86
2023/09/22 07:35:50;;;;;;;4.30;1.13;;;20.90;99.90;;;;;;7293392;19;20625;-86
2023/09/22 07:38:19;;;;;;;3.60;1.07;;;21.40;99.90;;;;;;7291416;19;20191;-86
2023/09/22 07:40:45;;;;;;;5.97;1.33;;;22.30;99.90;;;;;;7292544;19;20228;-85
2023/09/22 07:43:11;;;;;;;3.60;1.13;;;24.60;99.90;;;;;;7313319;19;20193;-86
2023/09/22 07:45:38;;;;;;;3.73;0.90;;;26.10;99.90;;;;;;7291966;19;20269;-86
2023/09/22 07:48:04;;;;;;;4.07;0.90;;;26.00;99.90;;;;;;7288692;19;20261;-84
2023/09/22 07:50:29;;;;;;;4.63;1.07;;;26.00;99.90;;;;;;7288700;19;20232;-86
2023/09/22 07:52:56;;;;;;;4.40;1.35;;;26.60;99.90;;;;;;7287917;19;20656;-86
2023/09/22 07:55:22;;;;;;;5.07;1.00;;;26.60;99.90;;;;;;7287030;19;20285;-84
2023/09/22 07:57:50;;;;;;;5.93;1.20;;;26.90;99.90;;;;;;7289512;19;20193;-84
2023/09/22 08:00:18;;;;;;;3.47;1.00;;;27.00;99.90;;;;;;7288087;19;20244;-83
2023/09/22 08:02:47;;;;;;;5.22;0.93;;;27.20;99.90;;;;;;7290007;19;20192;-84
2023/09/22 08:05:15;;;;;;;4.65;1.15;;;27.40;99.90;;;;;;7301000;19;20224;-83
2023/09/22 08:07:45;;;;;;;5.63;1.10;;;26.80;99.10;;;;;;7311959;19;20537;-87
2023/09/22 08:10:15;;;;;;;7.53;1.17;;;26.20;99.90;;;;;;7289934;19;20188;-87
2023/09/22 08:12:41;;;;;;;3.45;0.85;;;25.80;99.90;;;;;;7289475;19;20177;-87
2023/09/22 08:15:08;;;;;;;5.00;0.97;;;24.40;99.90;;;;;;7288055;19;20193;-87
2023/09/22 08:17:34;;;;;;;4.70;0.90;;;23.60;99.90;;;;;;7289473;19;20283;-86
2023/09/22 08:20:06;;;;;;;4.67;0.93;;;23.90;99.90;;;;;;7289524;19;20213;-87
2023/09/22 08:22:32;;;;;;;3.83;0.77;;;23.80;99.90;;;;;;7287230;19;20203;-85
2023/09/22 08:25:01;;;;;;;3.67;0.80;;;22.70;99.90;;;;;;7287413;19;20641;-85
2023/09/22 08:27:29;;;;;;;2.30;0.70;;;22.40;99.90;;;;;;7288015;19;20651;-86
2023/09/22 08:29:58;;;;;;;4.90;0.90;;;22.60;99.90;;;;;;7288517;19;20184;-86
2023/09/22 08:32:24;;;;;;;6.73;1.07;;;23.50;99.90;;;;;;7289887;19;20181;-86
2023/09/22 08:34:49;;;;;;;4.27;1.20;;;24.10;99.90;;;;;;7288629;19;20184;-87
2023/09/22 08:37:16;;;;;;;4.77;1.00;;;25.70;99.90;;;;;;7287984;19;20690;-86
2023/09/22 08:39:42;;;;;;;4.73;0.87;;;25.60;99.90;;;;;;7311435;19;20187;-86
2023/09/22 08:42:09;;;;;;;6.10;1.35;;;26.40;99.90;;;;;;7286322;19;20252;-86
2023/09/22 08:44:36;;;;;;;4.83;0.80;;;26.60;99.90;;;;;;7290024;19;20180;-87
2023/09/22 08:47:02;;;;;;;5.35;0.90;;;26.90;99.90;;;;;;7288893;19;20189;-84
2023/09/22 08:49:28;;;;;;;4.80;1.00;;;27.80;97.70;;;;;;7288714;19;20188;-84
2023/09/22 08:51:56;;;;;;;3.10;0.65;;;27.10;98.70;;;;;;7286697;19;20203;-87
2023/09/22 08:54:21;;;;;;;6.33;1.20;;;26.30;99.40;;;;;;7289281;19;20177;-84
2023/09/22 08:56:47;;;;;;;4.13;0.67;;;25.00;99.90;;;;;;7287273;19;20214;-85
2023/09/22 08:59:13;;;;;;;3.77;0.77;;;24.40;99.90;;;;;;7300353;19;20181;-84
2023/09/22 09:01:39;;;;;;;5.63;0.80;;;23.30;99.90;;;;;;7305420;19;20192;-85
2023/09/22 09:04:31;;;;;;;4.63;0.90;;;22.50;99.90;;;;;;7287714;19;20231;-85
2023/09/22 09:07:02;;;;;;;4.90;0.90;;;21.40;99.90;;;;;;7186077;19;2005047;-85
2023/09/22 09:09:48;;;;;;;4.80;0.77;;;20.60;99.90;;;;;;7287670;19;20215;-86
2023/09/22 09:12:14;;;;;;;5.37;0.90;;;20.20;99.90;;;;;;7277080;19;20202;-84
2023/09/22 09:14:46;;;;;;;6.30;1.00;;;20.00;99.90;;;;;;7316096;19;20297;-84
2023/09/22 09:17:23;;;;;;;5.27;0.90;;;19.90;99.90;;;;;;7292972;19;20731;-84
2023/09/22 09:19:56;;;;;;;4.90;0.90;;;19.50;99.90;;;;;;7194110;19;2005035;-86
2023/09/22 09:22:32;;;;;;;5.23;1.10;;;19.40;99.90;;;;;;7295987;19;20726;-85
2023/09/22 09:25:02;;;;;;;3.83;0.90;;;19.50;99.90;;;;;;7296911;19;20276;-85
2023/09/22 09:27:28;;;;;;;3.73;0.70;;;19.30;99.90;;;;;;7288009;19;20201;-86
2023/09/22 09:29:55;;;;;;;4.77;0.93;;;19.10;99.90;;;;;;7286714;19;20188;-86
2023/09/22 09:32:31;;;;;;;5.70;0.97;;;19.30;99.90;;;;;;7286580;19;20538;-87
2023/09/22 09:34:56;;;;;;;3.57;0.73;;;19.40;99.90;;;;;;7287645;19;20197;-85
2023/09/22 09:37:23;;;;;;;5.37;0.93;;;19.10;99.90;;;;;;7285978;19;20197;-87
2023/09/22 09:39:52;;;;;;;6.63;1.00;;;19.00;99.90;;;;;;7287323;19;20703;-86
2023/09/22 09:42:19;;;;;;;4.90;1.10;;;19.10;99.90;;;;;;7286408;19;20208;-83
2023/09/22 09:44:56;;;;;;;6.00;1.00;;;19.10;99.90;;;;;;7286815;19;20183;-83
2023/09/22 09:47:32;;;;;;;4.07;1.17;;;19.10;99.90;;;;;;7285737;19;20230;-83
2023/09/22 09:50:08;;;;;;;4.10;0.90;;;20.00;99.90;;;;;;7284232;19;20192;-84
2023/09/22 09:52:58;;;;;;;4.00;0.87;;;21.10;99.90;;;;;;7285241;19;20187;-85
2023/09/22 09:55:26;;;;;;;4.20;0.90;;;22.30;99.90;;;;;;7183007;19;2004613;-85
2023/09/22 09:57:53;;;;;;;3.87;0.97;;;22.80;99.90;;;;;;7284947;19;20192;-84
2023/09/22 10:00:19;;;;;;;3.43;1.00;;;23.80;99.90;;;;;;7284289;19;20211;-84
2023/09/22 10:02:49;;;;;;;4.30;1.00;;;25.10;99.90;;;;;;7284039;19;20201;-84
2023/09/22 10:05:23;;;;;;;4.37;0.80;;;25.00;99.90;;;;;;7284101;19;20283;-84
2023/09/22 10:07:50;;;;;;;2.83;0.90;;;25.30;99.90;;;;;;7284728;19;20188;-84
2023/09/22 10:10:19;;;;;;;4.03;1.00;;;25.50;99.90;;;;;;7284430;19;20195;-84
2023/09/22 10:12:47;;;;;;;6.97;0.90;;;27.10;99.90;;;;;;7284726;19;20694;-85
2023/09/22 10:15:12;;;;;;;2.20;0.70;;;27.60;96.20;;;;;;7306751;19;20205;-85
2023/09/22 10:17:39;;;;;;;4.43;0.70;;;27.50;94.20;;;;;;7286202;19;20196;-86
2023/09/22 10:20:10;;;;;;;5.85;1.17;;;27.60;93.50;;;;;;7285804;19;21056;-86
2023/09/22 10:22:37;;;;;;;4.70;1.08;;;28.70;93.30;;;;;;7284808;19;20300;-86
2023/09/22 10:25:12;;;;;;;4.47;1.00;;;28.50;90.80;;;;;;7285102;19;20288;-86
2023/09/22 10:28:06;;;;;;;5.68;0.85;;;29.40;90.80;;;;;;7284579;19;20188;-86
2023/09/22 10:30:44;;;;;;;2.72;0.68;;;29.00;86.40;;;;;;7191771;19;2004431;-86
2023/09/22 10:33:16;;;;;;;3.47;0.70;;;27.70;87.60;;;;;;7295184;19;20187;-86
2023/09/22 10:35:42;;;;;;;2.47;0.90;;;26.70;91.50;;;;;;7295460;19;20222;-86
2023/09/22 10:38:10;;;;;;;5.32;1.10;;;25.60;92.90;;;;;;7286137;19;20653;-87
2023/09/22 10:40:36;;;;;;;3.35;0.70;;;25.30;95.90;;;;;;7285730;19;20203;-84
2023/09/22 10:43:03;;;;;;;3.65;0.82;;;25.70;97.00;;;;;;7283607;19;20181;-85
2023/09/22 10:45:29;;;;;;;3.28;0.68;;;26.30;97.20;;;;;;7285531;19;20196;-84
2023/09/22 10:47:58;;;;;;;3.90;1.08;;;26.30;96.20;;;;;;7283703;19;20180;-84
2023/09/22 10:50:31;;;;;;;4.60;1.40;;;25.70;96.20;;;;;;7283173;19;20189;-84
2023/09/22 10:53:02;;;;;;;5.00;1.17;;;25.10;97.00;;;;;;7282736;19;20196;-85
2023/09/22 10:55:38;;;;;;;4.70;0.83;;;24.20;99.90;;;;;;7283182;19;20195;-84
2023/09/22 10:58:06;;;;;;;3.33;0.80;;;23.30;99.90;;;;;;7284055;19;20201;-84
2023/09/22 11:00:38;;;;;;;4.33;1.07;;;23.10;99.90;;;;;;7282351;19;20185;-84
2023/09/22 11:03:12;;;;;;;8.43;1.20;;;22.70;99.90;;;;;;7283191;19;20189;-84
2023/09/22 11:05:38;;;;;;;3.00;0.87;;;22.50;99.90;;;;;;7288087;19;20210;-85
2023/09/22 11:08:16;;;;;;;4.80;0.80;;;22.40;99.90;;;;;;7290694;19;20190;-84
2023/09/22 11:11:05;;;;;;;5.03;0.80;;;22.10;99.90;;;;;;7290958;19;20223;-85
2023/09/22 11:13:31;;;;;;;4.03;1.00;;;21.20;99.90;;;;;;7187788;19;2004557;-85
2023/09/22 11:16:02;;;;;;;5.80;0.90;;;20.60;99.90;;;;;;7288978;19;20193;-84
2023/09/22 11:18:32;;;;;;;5.37;1.27;;;20.40;99.90;;;;;;7292021;19;20240;-84
2023/09/22 11:20:59;;;;;;;3.67;1.20;;;20.30;99.90;;;;;;7291351;19;20646;-85
2023/09/22 11:23:30;;;;;;;4.60;0.97;;;20.30;99.90;;;;;;7290447;19;20671;-85
2023/09/22 11:26:07;;;;;;;5.47;0.90;;;19.90;99.90;;;;;;7290515;19;20222;-85
2023/09/22 11:28:34;;;;;;;5.53;1.10;;;19.90;99.90;;;;;;7288000;19;20326;-85
2023/09/22 11:31:08;;;;;;;6.67;0.90;;;20.00;99.90;;;;;;7289018;19;20194;-86
2023/09/22 11:33:36;;;;;;;4.80;1.07;;;20.30;99.90;;;;;;7290499;19;20192;-86
2023/09/22 11:36:03;;;;;;;4.37;0.90;;;20.50;99.90;;;;;;7289454;19;20199;-86
2023/09/22 11:38:31;;;;;;;4.03;1.10;;;20.50;99.90;;;;;;7290241;19;20187;-85
2023/09/22 11:41:18;;;;;;;4.30;1.20;;;20.50;99.90;;;;;;7290724;19;20189;-84
2023/09/22 11:43:48;;;;;;;5.03;1.00;;;20.50;99.90;;;;;;7280725;19;20189;-85
2023/09/22 11:46:19;;;;;;;5.97;1.40;;;20.60;99.90;;;;;;7301141;19;20189;-85
2023/09/22 11:49:05;;;;;;;5.47;0.93;;;20.50;99.90;;;;;;7290252;19;20189;-85
2023/09/22 11:51:40;;;;;;;5.03;1.03;;;20.30;99.90;;;;;;7289022;19;20217;-85
2023/09/22 11:54:10;;;;;;;5.13;1.20;;;20.40;99.90;;;;;;7289949;19;20661;-86
2023/09/22 11:56:36;;;;;;;3.87;1.20;;;20.70;99.90;;;;;;7288268;19;20249;-86
2023/09/22 11:59:21;;;;;;;5.73;1.37;;;21.10;99.90;;;;;;7288877;19;20186;-85
2023/09/22 12:01:51;;;;;;;4.47;0.97;;;21.40;99.90;;;;;;7185150;19;2004660;-85
2023/09/22 12:04:22;;;;;;;5.80;1.10;;;21.40;99.90;;;;;;7286770;19;20724;-85
2023/09/22 12:06:50;;;;;;;4.50;1.00;;;21.50;99.90;;;;;;7288989;19;20194;-86
2023/09/22 12:09:16;;;;;;;4.03;1.00;;;22.00;99.90;;;;;;7290127;19;20668;-85
2023/09/22 12:11:43;;;;;;;3.53;0.93;;;22.30;99.90;;;;;;7311852;19;20207;-86
2023/09/22 12:14:10;;;;;;;5.80;1.10;;;22.30;99.90;;;;;;7288483;19;20650;-86
2023/09/22 12:16:36;;;;;;;4.27;1.10;;;21.90;99.90;;;;;;7287715;19;20533;-86
2023/09/22 12:19:04;;;;;;;5.73;1.23;;;21.90;99.90;;;;;;7288601;19;20198;-86
2023/09/22 12:21:30;;;;;;;5.17;1.27;;;22.30;99.90;;;;;;7288946;19;20282;-86
2023/09/22 12:23:56;;;;;;;5.57;0.93;;;22.40;99.90;;;;;;7289510;19;20659;-86
2023/09/22 12:26:23;;;;;;;6.17;0.93;;;22.10;99.90;;;;;;7288059;19;20192;-84
2023/09/22 12:28:49;;;;;;;5.17;1.07;;;21.50;99.90;;;;;;7288576;19;20184;-84
2023/09/22 12:31:18;;;;;;;3.93;0.90;;;21.70;99.90;;;;;;7288878;19;20225;-84
2023/09/22 12:33:48;;;;;;;4.60;0.97;;;22.00;99.90;;;;;;7299592;19;21009;-84
2023/09/22 12:36:14;;;;;;;5.17;1.00;;;21.60;99.90;;;;;;7306759;19;20190;-84
2023/09/22 12:38:44;;;;;;;3.30;0.90;;;21.20;99.90;;;;;;7310710;19;20283;-86
2023/09/22 12:41:13;;;;;;;7.37;1.00;;;21.00;99.90;;;;;;7286787;19;20686;-86
2023/09/22 12:43:39;;;;;;;5.00;1.17;;;21.30;99.90;;;;;;7288004;19;20187;-85
2023/09/22 12:46:09;;;;;;;5.20;1.00;;;21.80;99.90;;;;;;7287901;19;20212;-86
2023/09/22 12:48:39;;;;;;;4.17;1.00;;;22.10;99.90;;;;;;7286879;19;20185;-86
2023/09/22 12:51:06;;;;;;;4.20;1.43;;;22.40;99.90;;;;;;7288405;19;20258;-86
2023/09/22 12:53:35;;;;;;;6.43;1.33;;;21.80;99.90;;;;;;7288126;19;20191;-86